createdAt,value
2018-05-26T00:01:46.095Z,7.20
2018-05-26T00:04:14.967Z,9.00
2018-05-26T00:06:43.863Z,7.37
2018-05-26T00:09:13.866Z,7.13
2018-05-26T00:11:42.772Z,6.43
2018-05-26T00:14:12.408Z,6.23
2018-05-26T00:16:41.287Z,6.70
2018-05-26T00:19:10.185Z,6.47
2018-05-26T00:21:39.091Z,7.00
2018-05-26T00:24:07.987Z,6.57
2018-05-26T00:26:37.717Z,7.27
2018-05-26T00:29:06.614Z,7.40
2018-05-26T00:31:36.251Z,7.13
2018-05-26T00:34:05.148Z,6.20
2018-05-26T00:39:04.460Z,6.30
2018-05-26T00:41:33.363Z,7.13
2018-05-26T00:44:02.241Z,6.43
2018-05-26T00:46:31.129Z,6.33
2018-05-26T00:48:59.996Z,6.10
2018-05-26T00:51:28.867Z,6.07
2018-05-26T00:53:58.831Z,7.60
2018-05-26T00:56:27.703Z,7.33
2018-05-26T00:58:56.569Z,6.00
2018-05-26T01:01:25.467Z,6.33
2018-05-26T01:03:55.107Z,5.80
2018-05-26T01:06:24.013Z,5.70
2018-05-26T01:08:52.896Z,5.83
2018-05-26T01:11:21.772Z,5.27
2018-05-26T01:13:50.665Z,6.33
2018-05-26T01:16:20.303Z,6.53
2018-05-26T01:18:49.199Z,5.67
2018-05-26T01:21:18.072Z,5.20
2018-05-26T01:23:46.963Z,5.50
2018-05-26T01:26:15.836Z,4.40
2018-05-26T01:28:44.758Z,4.50
2018-05-26T01:31:13.644Z,4.50
2018-05-26T01:33:42.512Z,4.43
2018-05-26T01:36:11.434Z,5.43
2018-05-26T01:38:40.311Z,5.23
2018-05-26T01:41:09.183Z,5.00
2018-05-26T01:43:38.071Z,5.23
2018-05-26T01:46:07.726Z,5.33
2018-05-26T01:48:36.614Z,4.43
2018-05-26T01:51:05.503Z,5.57
2018-05-26T01:53:34.363Z,5.43
2018-05-26T01:56:03.224Z,6.17
2018-05-26T01:58:32.115Z,5.73
2018-05-26T02:01:01.004Z,5.60
2018-05-26T02:03:29.888Z,5.43
2018-05-26T02:05:59.550Z,5.10
2018-05-26T02:08:28.447Z,5.40
2018-05-26T02:10:57.334Z,4.53
2018-05-26T02:13:27.006Z,4.97
2018-05-26T02:15:55.876Z,4.60
2018-05-26T02:18:24.740Z,4.43
2018-05-26T02:20:53.651Z,4.83
2018-05-26T02:23:23.283Z,4.40
2018-05-26T02:25:52.157Z,4.67
2018-05-26T02:28:21.045Z,4.60
2018-05-26T02:30:49.911Z,5.07
2018-05-26T02:33:18.796Z,4.90
2018-05-26T02:35:47.703Z,5.63
2018-05-26T02:38:16.567Z,4.70
2018-05-26T02:40:45.435Z,5.60
2018-05-26T02:43:14.344Z,5.17
2018-05-26T02:45:43.979Z,5.30
2018-05-26T02:48:12.845Z,4.77
2018-05-26T02:50:41.736Z,5.73
2018-05-26T02:53:10.604Z,5.37
2018-05-26T02:55:39.463Z,4.70
2018-05-26T02:58:08.384Z,5.20
2018-05-26T03:00:37.251Z,5.13
2018-05-26T03:03:06.127Z,5.03
2018-05-26T03:05:40.440Z,4.00
2018-05-26T03:08:14.888Z,5.50
2018-05-26T03:10:49.609Z,5.33
2018-05-26T03:13:23.975Z,5.20
2018-05-26T03:19:07.900Z,6.20
2018-05-26T03:21:37.542Z,5.40
2018-05-26T03:24:06.429Z,5.17
2018-05-26T03:26:35.515Z,5.80
2018-05-26T03:29:04.405Z,5.87
2018-05-26T03:31:33.277Z,6.00
2018-05-26T03:34:02.164Z,6.10
2018-05-26T03:36:31.798Z,6.77
2018-05-26T03:39:00.722Z,6.70
2018-05-26T03:41:29.588Z,5.70
2018-05-26T03:43:58.458Z,6.53
2018-05-26T03:46:27.364Z,6.70
2018-05-26T03:48:57.011Z,5.90
2018-05-26T03:51:25.875Z,6.00
2018-05-26T03:53:54.764Z,6.00
2018-05-26T03:56:41.463Z,5.17
2018-05-26T03:59:18.162Z,4.90
2018-05-26T04:01:47.034Z,5.67
2018-05-26T04:04:15.951Z,10.07
2018-05-26T04:06:44.823Z,4.70
2018-05-26T04:09:13.692Z,4.50
2018-05-26T04:11:42.584Z,4.70
2018-05-26T04:14:11.600Z,5.50
2018-05-26T04:16:41.293Z,5.47
2018-05-26T04:19:10.136Z,4.40
2018-05-26T04:21:39.031Z,4.00
2018-05-26T04:24:07.900Z,5.30
2018-05-26T04:26:36.799Z,4.43
2018-05-26T04:29:06.436Z,3.50
2018-05-26T04:31:35.327Z,3.80
2018-05-26T04:34:04.222Z,3.43
2018-05-26T04:36:33.855Z,3.50
2018-05-26T04:39:02.805Z,2.90
2018-05-26T04:41:31.683Z,2.90
2018-05-26T04:44:01.321Z,2.60
2018-05-26T04:46:30.978Z,2.40
2018-05-26T04:48:59.867Z,2.50
2018-05-26T04:51:28.764Z,2.47
2018-05-26T04:53:58.431Z,2.90
2018-05-26T04:56:27.307Z,2.90
2018-05-26T04:58:56.217Z,2.63
2018-05-26T05:01:25.092Z,2.80
2018-05-26T05:03:53.986Z,2.97
2018-05-26T05:06:22.911Z,2.97
2018-05-26T05:08:51.824Z,2.97
2018-05-26T05:11:20.700Z,3.10
2018-05-26T05:13:49.590Z,3.03
2018-05-26T05:16:18.460Z,2.93
2018-05-26T05:18:47.349Z,3.27
2018-05-26T05:21:16.999Z,2.90
2018-05-26T05:23:45.899Z,3.40
2018-05-26T05:26:14.799Z,2.80
2018-05-26T05:28:44.436Z,2.90
2018-05-26T05:31:13.311Z,3.10
2018-05-26T05:33:42.209Z,3.30
2018-05-26T05:36:11.083Z,2.83
2018-05-26T05:38:39.975Z,2.73
2018-05-26T05:41:08.847Z,3.00
2018-05-26T05:43:37.739Z,3.00
2018-05-26T05:46:07.378Z,2.90
2018-05-26T05:48:36.253Z,2.90
2018-05-26T05:51:05.161Z,3.17
2018-05-26T05:53:34.031Z,2.80
2018-05-26T05:56:02.939Z,2.90
2018-05-26T05:58:31.808Z,3.17
2018-05-26T06:01:01.448Z,2.70
2018-05-26T06:03:30.340Z,2.90
2018-05-26T06:05:59.271Z,2.73
2018-05-26T06:08:28.876Z,2.97
2018-05-26T06:10:57.768Z,3.03
2018-05-26T06:13:26.660Z,2.77
2018-05-26T06:15:55.530Z,2.70
2018-05-26T06:18:24.427Z,2.93
2018-05-26T06:20:54.072Z,3.00
2018-05-26T06:23:22.967Z,3.00
2018-05-26T06:25:51.911Z,2.63
2018-05-26T06:28:20.802Z,2.57
2018-05-26T06:30:49.723Z,2.93
2018-05-26T06:33:19.363Z,3.10
2018-05-26T06:35:48.275Z,3.10
2018-05-26T06:38:17.150Z,2.90
2018-05-26T06:40:46.052Z,2.80
2018-05-26T06:43:15.688Z,3.07
2018-05-26T06:45:44.564Z,3.17
2018-05-26T06:48:13.464Z,3.00
2018-05-26T06:50:42.386Z,3.27
2018-05-26T06:53:11.303Z,3.20
2018-05-26T06:55:40.176Z,3.00
2018-05-26T06:58:09.067Z,3.27
2018-05-26T07:00:37.969Z,2.97
2018-05-26T07:03:07.603Z,3.07
2018-05-26T07:05:36.482Z,2.90
2018-05-26T07:08:05.408Z,2.80
2018-05-26T07:10:35.039Z,2.80
2018-05-26T07:13:03.935Z,2.70
2018-05-26T07:15:32.825Z,2.80
2018-05-26T07:18:01.702Z,3.17
2018-05-26T07:20:30.620Z,3.07
2018-05-26T07:22:59.517Z,2.60
2018-05-26T07:25:28.415Z,2.40
2018-05-26T07:27:57.384Z,2.80
2018-05-26T07:30:26.251Z,2.60
2018-05-26T07:32:55.123Z,2.60
2018-05-26T07:35:24.020Z,2.50
2018-05-26T07:37:52.896Z,2.47
2018-05-26T07:40:21.795Z,2.77
2018-05-26T07:42:51.432Z,2.70
2018-05-26T07:45:20.326Z,2.50
2018-05-26T07:47:49.200Z,3.20
2018-05-26T07:50:18.070Z,3.00
2018-05-26T07:52:46.959Z,2.83
2018-05-26T07:55:15.910Z,3.20
2018-05-26T07:57:44.814Z,3.23
2018-05-26T08:00:13.716Z,2.70
2018-05-26T08:02:43.363Z,3.33
2018-05-26T08:05:12.259Z,6.97
2018-05-26T08:07:41.140Z,22.67
2018-05-26T08:10:10.035Z,5.77
2018-05-26T08:12:39.707Z,10.20
2018-05-26T08:15:08.583Z,6.43
2018-05-26T08:17:38.283Z,73.27
2018-05-26T08:20:07.939Z,81.47
2018-05-26T08:22:36.824Z,14.63
2018-05-26T08:25:05.727Z,7.17
2018-05-26T08:27:35.371Z,13.97
2018-05-26T08:30:04.323Z,23.93
2018-05-26T08:32:33.206Z,26.70
2018-05-26T08:35:02.187Z,8.70
2018-05-26T08:37:31.068Z,15.20
2018-05-26T08:39:59.987Z,26.53
2018-05-26T08:42:28.867Z,11.77
2018-05-26T08:44:58.519Z,12.77
2018-05-26T08:47:27.422Z,9.07
2018-05-26T08:49:56.303Z,5.17
2018-05-26T08:52:25.175Z,4.87
2018-05-26T08:54:54.128Z,3.33
2018-05-26T08:57:23.004Z,13.87
2018-05-26T08:59:51.878Z,5.17
2018-05-26T09:02:20.804Z,13.30
2018-05-26T09:04:50.444Z,6.77
2018-05-26T09:07:19.339Z,8.67
2018-05-26T09:09:48.231Z,5.90
2018-05-26T09:12:17.864Z,4.73
2018-05-26T09:14:46.779Z,5.27
2018-05-26T09:17:15.648Z,3.17
2018-05-26T09:19:44.539Z,3.87
2018-05-26T09:22:13.456Z,4.20
2018-05-26T09:24:42.339Z,4.53
2018-05-26T09:27:11.237Z,4.27
2018-05-26T09:29:40.142Z,4.23
2018-05-26T09:32:09.032Z,4.93
2018-05-26T09:34:38.711Z,4.13
2018-05-26T09:37:07.583Z,4.23
2018-05-26T09:39:37.227Z,4.10
2018-05-26T09:42:06.120Z,4.27
2018-05-26T09:44:35.001Z,4.30
2018-05-26T09:47:03.871Z,3.70
2018-05-26T09:49:32.785Z,4.20
2018-05-26T09:52:02.428Z,4.53
2018-05-26T09:54:31.291Z,4.57
2018-05-26T09:57:00.180Z,4.47
2018-05-26T09:59:29.055Z,4.57
2018-05-26T10:01:57.944Z,4.20
2018-05-26T10:04:26.861Z,4.20
2018-05-26T10:06:56.492Z,4.00
2018-05-26T10:09:25.371Z,3.60
2018-05-26T10:11:54.268Z,3.87
2018-05-26T10:14:23.148Z,3.87
2018-05-26T10:16:52.012Z,4.10
2018-05-26T10:19:20.915Z,3.90
2018-05-26T10:21:50.592Z,3.87
2018-05-26T10:24:19.474Z,3.43
2018-05-26T10:26:48.343Z,3.50
2018-05-26T10:29:17.256Z,3.90
2018-05-26T10:31:46.119Z,4.10
2018-05-26T10:34:15.795Z,4.00
2018-05-26T10:36:45.472Z,4.30
2018-05-26T10:39:14.359Z,3.80
2018-05-26T10:41:43.276Z,3.60
2018-05-26T10:44:12.153Z,3.57
2018-05-26T10:46:41.052Z,3.37
2018-05-26T10:49:09.971Z,3.50
2018-05-26T10:51:39.610Z,4.10
2018-05-26T10:54:08.506Z,3.60
2018-05-26T10:56:37.379Z,3.70
2018-05-26T10:59:06.283Z,3.70
2018-05-26T11:01:35.932Z,3.80
2018-05-26T11:04:04.810Z,3.87
2018-05-26T11:06:48.650Z,4.60
2018-05-26T11:09:17.530Z,4.20
2018-05-26T11:11:46.419Z,4.43
2018-05-26T11:14:15.288Z,3.90
2018-05-26T11:16:44.196Z,5.10
2018-05-26T11:19:13.068Z,4.17
2018-05-26T11:21:41.963Z,4.20
2018-05-26T11:24:10.975Z,4.13
2018-05-26T11:26:39.743Z,4.00
2018-05-26T11:29:08.640Z,4.30
2018-05-26T11:31:38.340Z,5.30
2018-05-26T11:34:07.988Z,4.73
2018-05-26T11:36:37.239Z,4.23
2018-05-26T11:39:06.168Z,4.37
2018-05-26T11:41:35.046Z,4.27
2018-05-26T11:44:03.956Z,4.57
2018-05-26T11:46:33.613Z,4.37
2018-05-26T11:49:02.496Z,4.03
2018-05-26T11:51:31.416Z,4.10
2018-05-26T11:54:00.297Z,4.40
2018-05-26T11:56:29.163Z,3.87
2018-05-26T11:58:58.067Z,3.77
2018-05-26T12:01:26.971Z,3.77
2018-05-26T12:03:55.871Z,4.03
2018-05-26T12:06:25.507Z,3.80
2018-05-26T12:08:54.375Z,3.63
2018-05-26T12:11:23.275Z,3.60
2018-05-26T12:13:52.152Z,3.60
2018-05-26T12:16:21.027Z,3.70
2018-05-26T12:18:49.938Z,3.80
2018-05-26T12:21:19.579Z,3.93
2018-05-26T12:23:48.468Z,3.70
2018-05-26T12:26:17.387Z,3.50
2018-05-26T12:28:46.255Z,3.87
2018-05-26T12:31:15.900Z,3.50
2018-05-26T12:33:44.799Z,3.77
2018-05-26T12:36:13.673Z,3.43
2018-05-26T12:38:43.359Z,3.20
2018-05-26T12:41:12.238Z,3.53
2018-05-26T12:43:41.137Z,3.63
2018-05-26T12:46:10.787Z,3.50
2018-05-26T12:48:39.685Z,3.50
2018-05-26T12:51:08.587Z,3.37
2018-05-26T12:53:37.481Z,3.57
2018-05-26T12:56:06.377Z,3.47
2018-05-26T12:58:35.289Z,3.27
2018-05-26T13:01:04.191Z,3.30
2018-05-26T13:03:33.060Z,3.23
2018-05-26T13:06:01.985Z,3.30
2018-05-26T13:08:30.872Z,3.20
2018-05-26T13:10:59.751Z,3.40
2018-05-26T13:13:28.657Z,3.67
2018-05-26T13:15:58.304Z,3.50
2018-05-26T13:18:27.221Z,3.10
2018-05-26T13:20:56.869Z,2.97
2018-05-26T13:23:25.770Z,3.30
2018-05-26T13:25:54.666Z,3.30
2018-05-26T13:28:24.347Z,3.10
2018-05-26T13:30:53.979Z,3.40
2018-05-26T13:33:22.852Z,3.13
2018-05-26T13:35:51.739Z,3.20
2018-05-26T13:38:20.630Z,3.20
2018-05-26T13:40:49.535Z,3.03
2018-05-26T13:43:19.188Z,3.23
2018-05-26T13:45:48.069Z,3.30
2018-05-26T13:48:16.965Z,3.30
2018-05-26T13:50:45.934Z,3.43
2018-05-26T13:53:15.557Z,3.10
2018-05-26T13:55:45.282Z,3.50
2018-05-26T13:58:14.880Z,3.20
2018-05-26T14:00:43.759Z,3.10
2018-05-26T14:03:12.669Z,3.53
2018-05-26T14:05:41.539Z,3.20
2018-05-26T14:08:10.408Z,3.10
2018-05-26T14:10:39.307Z,3.50
2018-05-26T14:13:08.968Z,2.90
2018-05-26T14:15:37.851Z,3.37
2018-05-26T14:18:06.725Z,3.20
2018-05-26T14:20:35.616Z,2.87
2018-05-26T14:23:04.503Z,3.10
2018-05-26T14:25:33.396Z,3.30
2018-05-26T14:28:02.383Z,3.53
2018-05-26T14:30:31.289Z,3.30
2018-05-26T14:33:00.184Z,3.00
2018-05-26T14:35:29.054Z,3.10
2018-05-26T14:37:57.966Z,3.10
2018-05-26T14:40:26.842Z,3.07
2018-05-26T14:42:55.710Z,3.50
2018-05-26T14:45:25.375Z,3.40
2018-05-26T14:47:54.272Z,3.00
2018-05-26T14:50:23.936Z,3.17
2018-05-26T14:52:52.833Z,3.40
2018-05-26T14:55:22.475Z,5.53
2018-05-26T14:57:51.395Z,10.17
2018-05-26T15:00:20.276Z,3.40
2018-05-26T15:02:49.912Z,3.10
2018-05-26T15:05:18.815Z,3.07
2018-05-26T15:07:47.688Z,9.00
2018-05-26T15:10:16.604Z,6.40
2018-05-26T15:12:46.268Z,3.40
2018-05-26T15:15:15.143Z,3.50
2018-05-26T15:17:44.036Z,3.40
2018-05-26T15:20:13.682Z,3.23
2018-05-26T15:22:42.587Z,3.60
2018-05-26T15:25:12.270Z,3.23
2018-05-26T15:27:41.143Z,3.83
2018-05-26T15:30:10.036Z,3.33
2018-05-26T15:32:38.928Z,3.10
2018-05-26T15:35:08.592Z,3.10
2018-05-26T15:37:37.467Z,3.30
2018-05-26T15:40:06.376Z,3.33
2018-05-26T15:42:35.248Z,3.37
2018-05-26T15:45:04.959Z,3.37
2018-05-26T15:47:33.885Z,3.40
2018-05-26T15:50:02.752Z,3.23
2018-05-26T15:52:31.630Z,3.27
2018-05-26T15:55:02.039Z,3.20
2018-05-26T15:57:30.915Z,3.30
2018-05-26T15:59:59.857Z,3.47
2018-05-26T16:02:29.488Z,3.23
2018-05-26T16:04:58.379Z,3.20
2018-05-26T16:07:28.080Z,3.20
2018-05-26T16:09:57.723Z,3.53
2018-05-26T16:12:26.641Z,3.53
2018-05-26T16:14:55.508Z,3.30
2018-05-26T16:17:24.375Z,3.23
2018-05-26T16:19:53.271Z,3.40
2018-05-26T16:22:22.913Z,3.47
2018-05-26T16:24:51.815Z,3.30
2018-05-26T16:27:20.696Z,3.37
2018-05-26T16:29:49.587Z,3.50
2018-05-26T16:32:19.250Z,3.57
2018-05-26T16:34:48.116Z,3.27
2018-05-26T16:37:17.028Z,3.47
2018-05-26T16:39:46.667Z,3.40
2018-05-26T16:42:15.538Z,3.53
2018-05-26T16:44:44.427Z,3.20
2018-05-26T16:47:13.341Z,3.73
2018-05-26T16:49:42.255Z,3.43
2018-05-26T16:52:11.128Z,3.50
2018-05-26T16:54:40.000Z,3.70
2018-05-26T16:57:08.888Z,3.50
2018-05-26T16:59:37.756Z,3.50
2018-05-26T17:02:06.652Z,3.20
2018-05-26T17:04:35.552Z,3.60
2018-05-26T17:07:04.452Z,3.53
2018-05-26T17:09:34.099Z,3.47
2018-05-26T17:12:02.988Z,3.50
2018-05-26T17:14:31.897Z,3.57
2018-05-26T17:17:01.551Z,3.40
2018-05-26T17:19:30.443Z,3.27
2018-05-26T17:21:59.318Z,3.60
2018-05-26T17:24:28.194Z,3.60
2018-05-26T17:26:57.868Z,3.40
2018-05-26T17:29:26.740Z,3.43
2018-05-26T17:31:55.641Z,3.70
2018-05-26T17:34:25.313Z,3.30
2018-05-26T17:36:54.191Z,3.70
2018-05-26T17:39:23.097Z,3.80
2018-05-26T17:41:52.734Z,3.60
2018-05-26T17:44:21.610Z,3.60
2018-05-26T17:46:50.564Z,3.63
2018-05-26T17:49:19.435Z,3.73
2018-05-26T17:51:48.309Z,3.67
2018-05-26T17:54:17.214Z,3.63
2018-05-26T17:56:46.084Z,3.90
2018-05-26T17:59:14.987Z,3.80
2018-05-26T18:01:43.883Z,4.10
2018-05-26T18:04:13.559Z,4.90
2018-05-26T18:06:42.447Z,6.23
2018-05-26T18:09:12.086Z,5.90
2018-05-26T18:11:40.972Z,5.07
2018-05-26T18:14:09.867Z,5.57
2018-05-26T18:16:38.743Z,5.27
2018-05-26T18:19:07.635Z,5.30
2018-05-26T18:21:37.334Z,5.90
2018-05-26T18:24:06.981Z,5.70
2018-05-26T18:26:36.137Z,6.13
2018-05-26T18:29:05.063Z,6.60
2018-05-26T18:31:33.935Z,5.83
2018-05-26T18:34:02.811Z,5.70
2018-05-26T18:36:31.711Z,5.40
2018-05-26T18:39:01.407Z,5.40
2018-05-26T18:41:30.284Z,5.50
2018-05-26T18:43:59.920Z,6.37
2018-05-26T18:46:29.595Z,6.83
2018-05-26T18:48:58.496Z,6.13
2018-05-26T18:51:28.146Z,6.03
2018-05-26T18:53:57.033Z,6.70
2018-05-26T18:56:25.938Z,6.57
2018-05-26T18:58:54.832Z,5.73
2018-05-26T19:01:23.729Z,5.80
2018-05-26T19:03:53.371Z,6.20
2018-05-26T19:06:22.267Z,5.50
2018-05-26T19:08:51.143Z,5.07
2018-05-26T19:11:20.015Z,5.83
2018-05-26T19:13:48.955Z,7.30
2018-05-26T19:16:17.831Z,9.37
2018-05-26T19:18:46.741Z,10.43
2018-05-26T19:21:15.620Z,13.97
2018-05-26T19:23:44.528Z,24.37
2018-05-26T19:26:14.196Z,21.93
2018-05-26T19:28:43.076Z,19.23
2018-05-26T19:31:11.972Z,12.80
2018-05-26T19:33:40.857Z,8.70
2018-05-26T19:36:09.748Z,7.73
2018-05-26T19:38:38.620Z,7.57
2018-05-26T19:41:07.531Z,7.30
2018-05-26T19:43:36.408Z,14.57
2018-05-26T19:46:05.304Z,11.53
2018-05-26T19:48:34.223Z,13.17
2018-05-26T19:51:03.096Z,17.10
2018-05-26T19:53:32.008Z,12.67
2018-05-26T19:56:00.932Z,10.93
2018-05-26T19:58:29.817Z,9.53
2018-05-26T20:00:58.691Z,10.50
2018-05-26T20:03:27.605Z,8.10
2018-05-26T20:05:56.478Z,9.63
2018-05-26T20:08:25.376Z,18.13
2018-05-26T20:10:54.251Z,22.53
2018-05-26T20:13:23.163Z,23.60
2018-05-26T20:15:52.047Z,16.07
2018-05-26T20:18:20.926Z,11.60
2018-05-26T20:20:49.839Z,10.73
2018-05-26T20:23:18.720Z,10.13
2018-05-26T20:25:47.591Z,9.27
2018-05-26T20:28:16.504Z,8.10
2018-05-26T20:30:45.380Z,9.07
2018-05-26T20:33:14.262Z,8.50
2018-05-26T20:35:43.158Z,7.27
2018-05-26T20:38:12.036Z,6.87
2018-05-26T20:40:40.937Z,6.77
2018-05-26T20:43:09.807Z,7.07
2018-05-26T20:45:38.703Z,5.90
2018-05-26T20:48:08.344Z,6.30
2018-05-26T20:50:37.217Z,8.10
2018-05-26T20:53:06.106Z,7.80
2018-05-26T20:55:35.770Z,8.00
2018-05-26T20:58:04.639Z,7.67
2018-05-26T21:00:33.534Z,7.07
2018-05-26T21:03:02.407Z,7.97
2018-05-26T21:05:31.299Z,7.97
2018-05-26T21:08:00.195Z,7.90
2018-05-26T21:10:29.079Z,7.93
2018-05-26T21:12:57.970Z,8.20
2018-05-26T21:15:27.643Z,8.00
2018-05-26T21:17:56.532Z,7.60
2018-05-26T21:20:26.211Z,7.80
2018-05-26T21:22:55.093Z,7.83
2018-05-26T21:25:23.970Z,7.30
2018-05-26T21:27:53.684Z,7.57
2018-05-26T21:30:22.535Z,7.03
2018-05-26T21:32:51.440Z,9.40
2018-05-26T21:35:20.320Z,8.70
2018-05-26T21:37:49.209Z,8.87
2018-05-26T21:40:18.115Z,10.20
2018-05-26T21:42:46.992Z,9.37
2018-05-26T21:45:15.907Z,8.63
2018-05-26T21:47:44.779Z,7.60
2018-05-26T21:50:13.675Z,6.87
2018-05-26T21:52:42.549Z,7.53
2018-05-26T21:55:11.444Z,7.30
2018-05-26T21:57:40.343Z,8.00
2018-05-26T22:00:09.253Z,8.17
2018-05-26T22:02:38.160Z,7.37
2018-05-26T22:05:07.045Z,7.70
2018-05-26T22:07:35.943Z,15.63
2018-05-26T22:10:04.840Z,30.00
2018-05-26T22:12:34.511Z,17.07
2018-05-26T22:15:03.396Z,35.07
2018-05-26T22:17:32.292Z,10.37
2018-05-26T22:20:01.211Z,16.27
2018-05-26T22:22:30.084Z,15.33
2018-05-26T22:24:59.847Z,15.33
2018-05-26T22:27:28.720Z,15.70
2018-05-26T22:29:57.633Z,11.27
2018-05-26T22:32:26.511Z,12.87
2018-05-26T22:34:56.151Z,8.33
2018-05-26T22:37:25.830Z,11.07
2018-05-26T22:39:55.467Z,8.90
2018-05-26T22:42:24.343Z,9.87
2018-05-26T22:44:53.239Z,8.50
2018-05-26T22:47:22.134Z,9.67
2018-05-26T22:49:51.007Z,9.20
2018-05-26T22:52:19.938Z,8.43
2018-05-26T22:54:48.807Z,8.57
2018-05-26T22:57:17.675Z,8.70
2018-05-26T22:59:46.586Z,8.33
2018-05-26T23:02:15.459Z,7.77
2018-05-26T23:04:44.331Z,7.60
2018-05-26T23:07:13.228Z,7.67
2018-05-26T23:09:42.119Z,8.20
2018-05-26T23:12:11.755Z,8.03
2018-05-26T23:14:40.644Z,8.10
2018-05-26T23:17:09.547Z,8.10
2018-05-26T23:19:38.441Z,7.50
2018-05-26T23:22:08.099Z,7.77
2018-05-26T23:24:36.967Z,8.50
2018-05-26T23:27:05.885Z,8.30
2018-05-26T23:29:35.531Z,8.07
2018-05-26T23:32:04.427Z,7.80
2018-05-26T23:34:34.103Z,8.60
2018-05-26T23:37:02.999Z,8.47
2018-05-26T23:39:31.873Z,8.00
2018-05-26T23:42:00.779Z,8.10
2018-05-26T23:44:30.423Z,8.23
2018-05-26T23:46:59.291Z,7.87
2018-05-26T23:49:28.190Z,8.67
2018-05-26T23:51:57.067Z,8.30
2018-05-26T23:54:25.955Z,8.17
2018-05-26T23:56:54.843Z,7.57
2018-05-26T23:59:24.521Z,7.63
